Time;durP1;ratioP1;P1;durP2;ratioP2;P2;SDS_P1;SDS_P2;PMS_P1;PMS_P2;Temp;Humidity;BMP_temperature;BMP_pressure;BME280_temperature;BME280_humidity;BME280_pressure;Samples;Min_cycle;Max_cycle;Signal;HPM_P1;HPM_P2
2022/06/19 00:02:26;;;;;;;18.83;4.75;;;24.90;99.90;;;;;;5092868;28;20071;-79
2022/06/19 00:04:55;;;;;;;17.60;3.70;;;24.90;99.90;;;;;;5091839;28;20132;-79
2022/06/19 00:07:23;;;;;;;23.25;3.78;;;24.80;99.90;;;;;;5095779;28;20044;-81
2022/06/19 00:09:50;;;;;;;17.90;3.97;;;24.80;99.90;;;;;;5091991;28;20123;-81
2022/06/19 00:12:18;;;;;;;22.77;4.53;;;24.80;99.90;;;;;;5094185;28;20051;-80
2022/06/19 00:14:45;;;;;;;13.10;3.65;;;24.80;99.90;;;;;;5090948;28;20422;-80
2022/06/19 00:17:13;;;;;;;12.73;3.08;;;24.90;99.90;;;;;;5094711;28;20054;-78
2022/06/19 00:19:42;;;;;;;18.55;3.95;;;24.80;99.90;;;;;;5085180;28;20510;-79
2022/06/19 00:22:09;;;;;;;17.60;4.53;;;24.80;99.90;;;;;;5093176;28;20056;-80
2022/06/19 00:24:35;;;;;;;13.23;3.55;;;24.80;99.90;;;;;;5092116;28;20041;-81
2022/06/19 00:27:03;;;;;;;19.55;4.15;;;24.80;99.90;;;;;;5092864;28;20103;-82
2022/06/19 00:29:30;;;;;;;24.50;5.05;;;24.80;99.90;;;;;;5092232;28;20045;-80
2022/06/19 00:31:57;;;;;;;15.45;3.88;;;24.80;99.90;;;;;;5093267;28;20647;-81
2022/06/19 00:34:23;;;;;;;15.38;3.90;;;24.80;99.90;;;;;;5096608;28;20044;-78
2022/06/19 00:36:51;;;;;;;18.80;4.93;;;24.80;99.90;;;;;;5094125;28;20123;-81
2022/06/19 00:39:19;;;;;;;15.38;3.67;;;24.80;99.90;;;;;;5094558;28;20521;-81
2022/06/19 00:41:47;;;;;;;14.98;3.65;;;24.70;99.90;;;;;;5087486;28;20131;-81
2022/06/19 00:44:15;;;;;;;14.20;3.70;;;24.70;99.90;;;;;;5094934;28;20055;-80
2022/06/19 00:47:02;;;;;;;14.82;4.35;;;24.70;99.90;;;;;;5093299;28;20436;-81
2022/06/19 00:49:32;;;;;;;13.57;3.72;;;24.70;99.90;;;;;;5092441;28;20051;-81
2022/06/19 00:52:16;;;;;;;11.82;2.97;;;24.70;99.90;;;;;;5098108;28;20063;-79
2022/06/19 00:54:50;;;;;;;15.55;3.72;;;24.70;99.90;;;;;;5092563;28;20081;-80
2022/06/19 00:57:22;;;;;;;15.63;3.78;;;24.60;99.90;;;;;;5097059;28;20047;-80
2022/06/19 01:00:01;;;;;;;15.45;3.60;;;24.50;99.90;;;;;;5098238;28;20086;-79
2022/06/19 01:02:28;;;;;;;17.73;4.32;;;24.50;99.90;;;;;;5092282;28;20109;-81
2022/06/19 01:04:55;;;;;;;23.02;4.90;;;24.60;99.90;;;;;;5097222;28;20051;-79
2022/06/19 01:07:26;;;;;;;9.80;2.75;;;24.50;99.90;;;;;;5096358;28;20131;-80
2022/06/19 01:09:53;;;;;;;;;;;24.50;99.90;;;;;;5095910;28;20048;-81
2022/06/19 01:12:21;;;;;;;15.90;4.10;;;24.50;99.90;;;;;;5097241;28;20296;-79
2022/06/19 01:14:52;;;;;;;21.95;3.40;;;24.50;99.90;;;;;;5094128;28;20052;-81
2022/06/19 01:17:19;;;;;;;19.42;4.00;;;24.50;99.90;;;;;;5090156;28;20539;-79
2022/06/19 01:19:46;;;;;;;16.05;4.00;;;24.50;99.90;;;;;;5096678;28;20139;-80
2022/06/19 01:22:54;;;;;;;10.98;3.38;;;24.50;99.90;;;;;;5094830;28;20052;-80
2022/06/19 01:25:27;;;;;;;17.48;3.92;;;24.50;99.90;;;;;;5096216;28;20045;-78
2022/06/19 01:31:04;;;;;;;16.10;3.10;;;24.40;99.90;;;;;;5071564;28;20066;-78
2022/06/19 01:33:38;;;;;;;18.95;3.22;;;24.40;99.90;;;;;;5087738;28;20127;-78
2022/06/19 01:36:07;;;;;;;12.48;3.35;;;24.40;99.90;;;;;;5090084;28;20071;-78
2022/06/19 01:38:35;;;;;;;16.33;3.70;;;24.40;99.90;;;;;;5094959;28;20116;-77
2022/06/19 01:41:07;;;;;;;15.20;3.55;;;24.40;99.90;;;;;;5094110;28;20091;-79
2022/06/19 01:43:35;;;;;;;15.57;3.42;;;24.40;99.90;;;;;;5093078;28;20072;-79
2022/06/19 01:46:04;;;;;;;12.48;2.97;;;24.30;99.90;;;;;;5095137;28;20395;-78
2022/06/19 01:48:33;;;;;;;15.25;3.35;;;24.40;99.90;;;;;;5088044;28;20075;-78
2022/06/19 01:51:02;;;;;;;11.52;3.35;;;24.40;99.90;;;;;;5094693;28;20059;-78
2022/06/19 01:53:59;;;;;;;17.15;3.78;;;24.30;99.90;;;;;;5092787;28;20052;-77
2022/06/19 01:56:26;;;;;;;13.80;3.42;;;24.20;99.90;;;;;;5090878;28;20049;-78
2022/06/19 01:58:56;;;;;;;14.50;3.28;;;24.20;99.90;;;;;;5091583;28;20052;-77
2022/06/19 02:01:23;;;;;;;18.25;4.50;;;24.20;99.90;;;;;;5095079;28;20044;-78
2022/06/19 02:03:57;;;;;;;14.10;2.97;;;24.10;99.90;;;;;;5090636;28;20044;-77
2022/06/19 02:06:28;;;;;;;16.38;4.20;;;24.20;99.90;;;;;;5087670;28;20045;-77
2022/06/19 02:08:55;;;;;;;12.68;3.63;;;24.00;99.90;;;;;;5091793;28;20143;-77
2022/06/19 02:11:22;;;;;;;14.43;3.20;;;24.00;99.90;;;;;;5094123;28;20051;-78
2022/06/19 02:13:50;;;;;;;18.00;3.22;;;24.00;99.90;;;;;;5090106;28;20074;-77
2022/06/19 02:16:21;;;;;;;14.75;4.00;;;24.10;99.90;;;;;;5092983;28;20436;-77
2022/06/19 02:18:50;;;;;;;15.00;3.35;;;24.00;99.90;;;;;;5087455;28;20052;-79
2022/06/19 02:21:33;;;;;;;12.60;2.92;;;24.00;99.90;;;;;;5093328;28;20489;-79
2022/06/19 02:24:00;;;;;;;12.68;3.85;;;24.00;99.90;;;;;;5094335;28;20054;-79
2022/06/19 02:26:27;;;;;;;15.73;3.42;;;24.00;99.90;;;;;;5087238;28;20045;-78
2022/06/19 02:28:54;;;;;;;15.07;3.50;;;24.10;99.90;;;;;;5093003;28;20044;-78
2022/06/19 02:31:22;;;;;;;9.95;2.75;;;24.00;99.90;;;;;;5087434;28;20048;-76
2022/06/19 02:33:52;;;;;;;19.40;3.72;;;24.00;99.90;;;;;;5090235;28;20044;-80
2022/06/19 02:36:37;;;;;;;13.55;3.22;;;23.90;99.90;;;;;;5095168;28;20516;-80
2022/06/19 02:39:26;;;;;;;13.07;3.38;;;23.90;99.90;;;;;;5090941;28;20055;-80
2022/06/19 02:42:17;;;;;;;14.07;3.15;;;23.90;99.90;;;;;;5090496;28;20063;-78
2022/06/19 02:44:45;;;;;;;9.65;3.17;;;23.90;99.90;;;;;;5089568;28;20083;-80
2022/06/19 02:47:12;;;;;;;12.55;3.55;;;23.90;99.90;;;;;;5095923;28;20051;-80
2022/06/19 02:49:39;;;;;;;18.50;4.18;;;23.90;99.90;;;;;;5091622;28;20040;-80
2022/06/19 02:52:07;;;;;;;19.48;4.15;;;23.90;99.90;;;;;;5093223;28;20390;-78
2022/06/19 02:54:34;;;;;;;13.60;3.28;;;23.90;99.90;;;;;;5094831;28;20052;-80
2022/06/19 02:57:02;;;;;;;12.75;3.38;;;23.90;99.90;;;;;;5093016;28;20130;-79
2022/06/19 02:59:29;;;;;;;13.20;3.65;;;23.80;99.90;;;;;;5094461;28;20044;-80
2022/06/19 03:01:55;;;;;;;16.67;4.50;;;23.80;99.90;;;;;;5092262;28;20040;-79
2022/06/19 03:04:35;;;;;;;18.83;4.22;;;23.80;99.90;;;;;;5095219;28;20127;-79
2022/06/19 03:07:01;;;;;;;10.48;3.75;;;23.80;99.90;;;;;;5091741;28;20054;-79
2022/06/19 03:09:28;;;;;;;14.82;4.00;;;23.80;99.90;;;;;;5092341;28;20052;-81
2022/06/19 03:11:55;;;;;;;15.98;3.75;;;23.80;99.90;;;;;;5094300;28;20167;-80
2022/06/19 03:14:23;;;;;;;16.13;4.75;;;23.80;99.90;;;;;;5093329;28;20048;-79
2022/06/19 03:16:50;;;;;;;15.10;3.08;;;23.70;99.90;;;;;;5094706;28;20058;-78
2022/06/19 03:19:17;;;;;;;10.00;3.13;;;23.70;99.90;;;;;;5085785;28;20071;-78
2022/06/19 03:21:44;;;;;;;14.13;3.35;;;23.60;99.90;;;;;;5095325;28;20107;-80
2022/06/19 03:24:10;;;;;;;12.73;3.70;;;23.60;99.90;;;;;;5092066;28;20048;-80
2022/06/19 03:26:37;;;;;;;17.20;3.75;;;23.60;99.90;;;;;;5094349;28;20040;-80
2022/06/19 03:29:04;;;;;;;15.13;3.00;;;23.60;99.90;;;;;;5091914;28;20045;-78
2022/06/19 03:31:31;;;;;;;15.90;3.88;;;23.60;99.90;;;;;;5093585;28;20040;-79
2022/06/19 03:33:58;;;;;;;11.48;3.92;;;23.60;99.90;;;;;;5093696;28;20048;-80
2022/06/19 03:36:25;;;;;;;12.15;2.72;;;23.60;99.90;;;;;;5092267;28;20052;-79
2022/06/19 03:38:52;;;;;;;9.48;2.40;;;23.60;99.90;;;;;;5093560;28;20084;-80
2022/06/19 03:41:19;;;;;;;12.52;3.40;;;23.60;99.90;;;;;;5091590;28;20044;-77
2022/06/19 03:43:45;;;;;;;17.48;4.15;;;23.60;99.90;;;;;;5094116;28;20052;-79
2022/06/19 03:46:15;;;;;;;9.57;3.28;;;23.60;99.90;;;;;;5087340;28;20048;-80
2022/06/19 03:48:45;;;;;;;14.15;3.35;;;23.60;99.90;;;;;;5092766;28;20055;-79
2022/06/19 03:51:12;;;;;;;14.13;3.90;;;23.60;99.90;;;;;;5093248;28;20048;-78
2022/06/19 03:53:39;;;;;;;15.27;4.13;;;23.60;99.90;;;;;;5091960;28;20223;-78
2022/06/19 03:56:06;;;;;;;12.50;3.40;;;23.60;99.90;;;;;;5093160;28;20044;-78
2022/06/19 03:58:47;;;;;;;15.20;3.33;;;23.60;99.90;;;;;;5091699;28;20072;-80
2022/06/19 04:01:16;;;;;;;17.23;4.53;;;23.60;99.90;;;;;;5089783;28;20051;-79
2022/06/19 04:03:43;;;;;;;12.90;3.83;;;23.60;99.90;;;;;;5092545;28;20058;-79
2022/06/19 04:06:12;;;;;;;12.65;3.38;;;23.60;99.90;;;;;;5093500;28;20040;-80
2022/06/19 04:08:39;;;;;;;13.95;2.88;;;23.50;99.90;;;;;;5092004;28;20075;-78
2022/06/19 04:11:07;;;;;;;12.85;3.25;;;23.50;99.90;;;;;;5093780;28;20044;-80
2022/06/19 04:13:35;;;;;;;12.75;3.40;;;23.50;99.90;;;;;;5090448;28;20051;-80
2022/06/19 04:16:04;;;;;;;14.35;3.55;;;23.60;99.90;;;;;;5092900;28;20079;-80
2022/06/19 04:18:31;;;;;;;15.02;3.38;;;23.60;99.90;;;;;;5091071;28;20421;-80
2022/06/19 04:20:59;;;;;;;16.25;3.90;;;23.60;99.90;;;;;;5092817;28;20044;-79
2022/06/19 04:23:26;;;;;;;11.00;3.60;;;23.60;99.90;;;;;;5096860;28;20520;-79
2022/06/19 04:25:54;;;;;;;13.13;3.67;;;23.60;99.90;;;;;;5096239;28;20045;-80
2022/06/19 04:28:25;;;;;;;10.88;3.47;;;23.60;99.90;;;;;;5096874;28;20048;-78
2022/06/19 04:30:52;;;;;;;10.50;3.50;;;23.60;99.90;;;;;;5094492;28;20044;-78
2022/06/19 04:33:20;;;;;;;12.32;2.92;;;23.70;99.90;;;;;;5098025;28;20048;-78
2022/06/19 04:35:48;;;;;;;17.23;4.07;;;23.70;99.90;;;;;;5096280;28;20052;-79
2022/06/19 04:38:15;;;;;;;13.68;4.65;;;23.70;99.90;;;;;;5097147;28;20048;-80
2022/06/19 04:40:44;;;;;;;15.48;4.00;;;23.70;99.90;;;;;;5096478;28;20063;-79
2022/06/19 04:43:12;;;;;;;17.23;4.07;;;23.80;99.90;;;;;;5095640;28;20048;-81
2022/06/19 04:45:40;;;;;;;13.63;3.63;;;23.90;99.90;;;;;;5097349;28;20131;-80
2022/06/19 04:48:07;;;;;;;12.77;3.47;;;23.80;99.90;;;;;;5094103;28;20041;-79
2022/06/19 04:50:34;;;;;;;8.93;2.85;;;23.90;99.90;;;;;;5090366;28;20104;-78
2022/06/19 04:53:01;;;;;;;17.48;3.30;;;23.90;99.90;;;;;;5097842;28;20115;-79
2022/06/19 04:55:28;;;;;;;18.80;4.32;;;23.90;99.90;;;;;;5094742;28;20048;-80
2022/06/19 04:58:00;;;;;;;10.38;3.53;;;23.90;99.90;;;;;;5096302;28;20055;-79
2022/06/19 05:00:27;;;;;;;9.43;3.60;;;23.90;99.90;;;;;;5098291;28;20052;-78
2022/06/19 05:02:54;;;;;;;14.35;3.17;;;23.90;99.90;;;;;;5095538;28;20151;-78
2022/06/19 05:05:21;;;;;;;17.48;3.53;;;24.00;99.90;;;;;;5096462;28;20048;-80
2022/06/19 05:07:48;;;;;;;11.98;4.05;;;24.10;99.90;;;;;;5094781;28;20127;-78
2022/06/19 05:10:15;;;;;;;15.35;3.85;;;24.20;99.90;;;;;;5097293;28;20050;-80
2022/06/19 05:12:42;;;;;;;14.15;4.57;;;24.30;99.90;;;;;;5095148;28;20052;-79
2022/06/19 05:15:10;;;;;;;18.60;3.65;;;24.40;99.90;;;;;;5098072;28;20421;-79
2022/06/19 05:17:36;;;;;;;15.77;3.80;;;24.50;99.90;;;;;;5095211;28;20417;-78
2022/06/19 05:20:04;;;;;;;15.40;3.92;;;24.60;99.90;;;;;;5095933;28;20131;-80
2022/06/19 05:22:31;;;;;;;12.40;3.92;;;24.70;99.90;;;;;;5096104;28;20049;-79
2022/06/19 05:24:57;;;;;;;12.65;3.75;;;24.80;99.90;;;;;;5096136;28;20103;-80
2022/06/19 05:27:24;;;;;;;14.63;3.67;;;24.80;99.90;;;;;;5096863;28;20497;-79
2022/06/19 05:29:51;;;;;;;23.95;4.25;;;25.00;99.90;;;;;;5094018;28;20104;-79
2022/06/19 05:32:17;;;;;;;15.05;5.07;;;25.00;99.90;;;;;;5098170;28;20125;-78
2022/06/19 05:34:45;;;;;;;11.05;3.90;;;25.10;99.90;;;;;;5093059;28;20041;-81
2022/06/19 05:37:14;;;;;;;14.25;3.92;;;25.20;99.90;;;;;;5097139;28;20052;-79
2022/06/19 05:39:41;;;;;;;9.52;4.28;;;25.30;99.90;;;;;;5094863;28;20044;-80
2022/06/19 05:42:08;;;;;;;15.77;3.42;;;25.30;99.90;;;;;;5096156;28;20059;-80
2022/06/19 05:44:36;;;;;;;14.95;3.30;;;25.50;99.90;;;;;;5093739;28;20048;-79
2022/06/19 05:47:04;;;;;;;8.45;3.05;;;25.50;99.90;;;;;;5094995;28;20059;-80
2022/06/19 05:49:34;;;;;;;17.73;3.83;;;25.60;99.90;;;;;;5095382;28;20044;-79
2022/06/19 05:52:01;;;;;;;;;;;25.60;99.90;;;;;;5094382;28;20103;-78
2022/06/19 05:54:28;;;;;;;10.73;3.67;;;25.70;99.90;;;;;;5090134;28;19927;-80
2022/06/19 05:56:56;;;;;;;14.55;3.15;;;25.70;99.90;;;;;;5096578;28;20048;-81
2022/06/19 05:59:22;;;;;;;14.02;4.63;;;25.80;99.90;;;;;;5092694;28;20139;-78
2022/06/19 06:01:49;;;;;;;10.63;3.90;;;25.80;99.90;;;;;;5095148;28;20090;-80
2022/06/19 06:04:16;;;;;;;20.27;4.15;;;25.90;99.90;;;;;;5094212;28;20116;-80
2022/06/19 06:06:42;;;;;;;12.43;4.03;;;26.00;99.90;;;;;;5096271;28;20071;-78
2022/06/19 06:09:12;;;;;;;12.98;4.13;;;26.10;99.90;;;;;;5092823;28;20044;-78
2022/06/19 06:11:39;;;;;;;11.48;4.45;;;26.10;99.90;;;;;;5095989;28;20112;-79
2022/06/19 06:14:06;;;;;;;11.13;4.47;;;26.20;99.90;;;;;;5093046;28;20053;-82
2022/06/19 06:16:33;;;;;;;10.15;4.30;;;26.30;99.90;;;;;;5095788;28;20048;-79
2022/06/19 06:18:59;;;;;;;12.38;4.53;;;26.30;99.90;;;;;;5091708;28;20054;-79
2022/06/19 06:21:26;;;;;;;18.88;4.68;;;26.40;99.90;;;;;;5094942;28;20058;-78
2022/06/19 06:23:54;;;;;;;11.20;4.25;;;26.40;99.90;;;;;;5092620;28;20048;-78
2022/06/19 06:26:24;;;;;;;12.82;4.80;;;26.50;99.90;;;;;;5093616;28;20066;-78
2022/06/19 06:28:52;;;;;;;14.13;4.70;;;26.60;99.90;;;;;;5092984;28;20565;-77
2022/06/19 06:31:20;;;;;;;11.35;4.88;;;26.60;99.90;;;;;;5092107;28;20050;-80
2022/06/19 06:33:54;;;;;;;14.20;4.90;;;26.60;99.90;;;;;;5089393;28;20048;-78
2022/06/19 06:36:21;;;;;;;13.63;4.30;;;26.70;99.90;;;;;;5094681;28;20048;-78
2022/06/19 06:38:47;;;;;;;14.25;4.97;;;26.80;99.90;;;;;;5092160;28;20048;-78
2022/06/19 06:41:14;;;;;;;13.60;4.22;;;26.80;99.90;;;;;;5094109;28;20082;-79
2022/06/19 06:43:44;;;;;;;13.82;5.00;;;26.90;99.90;;;;;;5093971;28;20115;-78
2022/06/19 06:46:15;;;;;;;9.68;3.83;;;26.90;99.90;;;;;;5092726;28;20044;-78
2022/06/19 06:48:42;;;;;;;16.13;4.72;;;26.90;99.90;;;;;;5095156;28;20153;-78
2022/06/19 06:51:11;;;;;;;14.20;4.40;;;27.00;99.90;;;;;;5088109;28;20413;-78
2022/06/19 06:53:38;;;;;;;14.10;4.47;;;27.10;99.90;;;;;;5095002;28;20040;-78
2022/06/19 06:56:05;;;;;;;11.82;5.03;;;27.10;99.90;;;;;;5091559;28;20433;-78
2022/06/19 06:58:32;;;;;;;15.50;5.25;;;27.20;99.90;;;;;;5093348;28;20052;-78
2022/06/19 07:01:06;;;;;;;15.27;5.35;;;27.20;99.90;;;;;;5093793;28;20052;-79
2022/06/19 07:03:33;;;;;;;16.08;5.05;;;27.20;99.90;;;;;;5095483;28;20044;-78
2022/06/19 07:06:00;;;;;;;14.25;5.10;;;27.30;99.90;;;;;;5091755;28;20045;-78
2022/06/19 07:08:27;;;;;;;14.02;4.50;;;27.30;99.90;;;;;;5088170;28;20051;-79
2022/06/19 07:10:53;;;;;;;12.35;5.53;;;27.40;99.90;;;;;;5094709;28;20050;-78
2022/06/19 07:13:20;;;;;;;10.73;5.00;;;27.40;99.90;;;;;;5092507;28;20046;-78
2022/06/19 07:15:49;;;;;;;12.43;6.57;;;27.40;99.90;;;;;;5093686;28;20048;-79
2022/06/19 07:18:15;;;;;;;13.77;5.40;;;27.50;99.90;;;;;;5093729;28;20048;-78
2022/06/19 07:20:42;;;;;;;12.13;5.85;;;27.50;99.90;;;;;;5093310;28;20071;-78
2022/06/19 07:23:09;;;;;;;12.18;5.78;;;27.50;99.90;;;;;;5093701;28;20049;-79
2022/06/19 07:25:35;;;;;;;11.35;5.55;;;27.50;99.90;;;;;;5092405;28;20045;-78
2022/06/19 07:28:02;;;;;;;11.77;5.78;;;27.50;99.90;;;;;;5095557;28;20044;-80
2022/06/19 07:30:30;;;;;;;17.65;5.72;;;27.50;99.90;;;;;;5091163;28;20068;-79
2022/06/19 07:32:57;;;;;;;12.43;6.60;;;27.60;99.90;;;;;;5087699;28;20087;-79
2022/06/19 07:35:24;;;;;;;13.00;6.32;;;27.60;99.90;;;;;;5095344;28;20054;-79
2022/06/19 07:37:51;;;;;;;19.30;7.45;;;27.60;99.90;;;;;;5093217;28;20054;-79
2022/06/19 07:40:21;;;;;;;10.38;5.72;;;27.70;99.90;;;;;;5093844;28;20047;-78
2022/06/19 07:42:47;;;;;;;16.77;6.07;;;27.70;99.90;;;;;;5094274;28;20075;-79
2022/06/19 07:45:15;;;;;;;12.70;5.40;;;27.80;99.90;;;;;;5093613;28;20345;-80
2022/06/19 07:50:27;;;;;;;10.45;5.90;;;27.80;99.90;;;;;;5091135;28;20119;-79
2022/06/19 07:52:54;;;;;;;11.38;6.18;;;27.80;99.90;;;;;;5092546;28;20044;-79
2022/06/19 07:55:24;;;;;;;13.98;6.60;;;27.90;99.90;;;;;;5095742;28;20111;-78
2022/06/19 07:57:51;;;;;;;13.95;5.32;;;27.90;99.90;;;;;;5093073;28;20044;-80
2022/06/19 08:00:24;;;;;;;10.13;5.47;;;27.90;99.90;;;;;;5096151;28;20210;-80
2022/06/19 08:02:52;;;;;;;9.02;5.70;;;27.90;99.90;;;;;;5093921;28;20053;-78
2022/06/19 08:05:21;;;;;;;14.50;6.05;;;28.00;99.90;;;;;;5094269;28;20402;-80
2022/06/19 08:07:50;;;;;;;14.70;6.60;;;28.00;99.90;;;;;;5095450;28;20068;-78
2022/06/19 08:10:26;;;;;;;14.93;6.45;;;28.10;99.90;;;;;;5092876;28;20044;-78
2022/06/19 08:12:54;;;;;;;15.38;6.18;;;28.10;99.90;;;;;;5089918;28;20044;-78
2022/06/19 08:15:21;;;;;;;14.93;5.75;;;28.10;99.90;;;;;;5094453;28;20058;-79
2022/06/19 08:17:49;;;;;;;16.20;6.22;;;28.10;99.90;;;;;;5093086;28;20049;-80
2022/06/19 08:20:18;;;;;;;14.73;7.03;;;28.20;99.90;;;;;;5092162;28;20044;-79
2022/06/19 08:22:45;;;;;;;11.07;6.18;;;28.20;99.90;;;;;;5093255;28;20351;-80
2022/06/19 08:25:13;;;;;;;12.65;6.63;;;28.30;99.90;;;;;;5090510;28;20080;-79
2022/06/19 08:27:43;;;;;;;14.85;6.55;;;28.30;99.90;;;;;;5094810;28;20104;-79
2022/06/19 08:30:15;;;;;;;12.18;6.65;;;28.40;99.90;;;;;;5087592;28;20055;-80
2022/06/19 08:32:42;;;;;;;16.40;6.80;;;28.40;99.90;;;;;;5092365;28;20052;-78
2022/06/19 08:35:09;;;;;;;12.60;6.65;;;28.40;99.90;;;;;;5092217;28;20056;-79
2022/06/19 08:37:38;;;;;;;12.38;6.55;;;28.40;99.90;;;;;;5090156;28;20440;-78
2022/06/19 08:40:25;;;;;;;12.53;6.70;;;28.50;99.90;;;;;;5093056;28;20048;-79
2022/06/19 08:43:23;;;;;;;11.80;6.93;;;28.50;99.90;;;;;;5091460;28;20052;-79
2022/06/19 08:46:03;;;;;;;15.98;7.40;;;28.60;99.90;;;;;;5092955;28;20081;-79
2022/06/19 08:49:02;;;;;;;12.55;6.20;;;28.60;99.90;;;;;;5088808;28;20498;-79
2022/06/19 08:51:51;;;;;;;13.80;6.03;;;28.70;99.90;;;;;;5072873;28;20479;-78
2022/06/19 08:54:42;;;;;;;9.32;5.82;;;28.70;99.90;;;;;;5089245;28;20100;-79
2022/06/19 08:57:28;;;;;;;15.48;7.55;;;28.70;99.90;;;;;;5089757;28;20052;-80
2022/06/19 09:00:33;;;;;;;12.45;6.07;;;28.80;99.90;;;;;;5087290;28;20087;-78
2022/06/19 09:03:11;;;;;;;15.23;6.85;;;28.90;99.90;;;;;;5090636;28;20044;-78
2022/06/19 09:05:53;;;;;;;18.13;6.00;;;28.90;99.90;;;;;;5089646;28;20083;-78
2022/06/19 09:08:23;;;;;;;14.15;6.03;;;28.90;99.90;;;;;;5091691;28;20093;-78
2022/06/19 09:11:21;;;;;;;12.30;6.50;;;28.90;99.90;;;;;;5095858;28;20130;-79
2022/06/19 09:14:20;;;;;;;8.98;6.90;;;29.00;99.90;;;;;;5096034;28;20048;-80
2022/06/19 09:17:25;;;;;;;18.03;7.57;;;29.00;99.90;;;;;;5090027;28;20399;-78
2022/06/19 09:20:07;;;;;;;15.20;7.13;;;29.10;99.90;;;;;;5092858;28;20234;-78
2022/06/19 09:23:12;;;;;;;17.35;6.28;;;29.10;99.90;;;;;;5090397;28;20060;-78
2022/06/19 09:25:49;;;;;;;13.23;6.38;;;29.10;99.90;;;;;;5075022;28;20084;-79
2022/06/19 09:28:28;;;;;;;11.80;5.93;;;29.20;99.90;;;;;;5089259;28;20054;-79
2022/06/19 09:31:15;;;;;;;13.15;6.50;;;29.20;99.90;;;;;;5095030;28;20050;-78
2022/06/19 09:34:12;;;;;;;16.42;6.65;;;29.30;99.90;;;;;;5092146;28;20104;-78
2022/06/19 09:37:06;;;;;;;12.60;6.15;;;29.30;99.90;;;;;;5093462;28;20045;-79
2022/06/19 09:40:05;;;;;;;12.10;6.60;;;29.40;99.90;;;;;;5093492;28;20052;-78
2022/06/19 09:42:40;;;;;;;19.35;7.72;;;29.40;99.90;;;;;;5095821;28;20048;-79
2022/06/19 09:45:12;;;;;;;12.77;6.20;;;29.40;99.90;;;;;;5092329;28;20108;-78
2022/06/19 09:47:46;;;;;;;12.23;6.22;;;29.40;99.90;;;;;;5096631;28;20044;-78
2022/06/19 09:50:41;;;;;;;10.35;6.95;;;29.50;99.90;;;;;;5093808;28;20045;-78
2022/06/19 09:53:30;;;;;;;15.05;7.93;;;29.50;99.90;;;;;;5094298;28;20064;-81
2022/06/19 09:56:42;;;;;;;10.13;6.88;;;29.60;99.90;;;;;;5093589;28;20135;-78
2022/06/19 09:59:28;;;;;;;19.98;7.47;;;29.70;99.90;;;;;;5092256;28;20052;-79
2022/06/19 10:02:04;;;;;;;10.43;7.10;;;29.70;99.90;;;;;;5091077;28;20047;-79
2022/06/19 10:04:48;;;;;;;13.20;7.47;;;29.70;99.90;;;;;;5095122;28;20445;-80
2022/06/19 10:07:21;;;;;;;12.75;7.28;;;29.70;99.90;;;;;;5091289;28;20055;-79
2022/06/19 10:09:53;;;;;;;15.50;7.70;;;29.80;99.90;;;;;;5095007;28;20126;-80
2022/06/19 10:12:33;;;;;;;13.27;7.72;;;29.80;99.90;;;;;;5097080;28;20127;-79
2022/06/19 10:15:06;;;;;;;12.88;8.15;;;29.90;99.90;;;;;;5092439;28;20040;-80
2022/06/19 10:17:41;;;;;;;10.57;8.05;;;30.00;99.90;;;;;;5094718;28;20074;-79
2022/06/19 10:20:16;;;;;;;14.95;8.10;;;30.00;99.90;;;;;;5089750;28;20051;-78
2022/06/19 10:22:59;;;;;;;15.82;7.47;;;30.10;99.90;;;;;;5095190;28;20060;-80
2022/06/19 10:25:32;;;;;;;12.15;7.50;;;30.10;99.90;;;;;;5090736;28;20059;-79
2022/06/19 10:28:34;;;;;;;15.70;7.75;;;30.10;99.90;;;;;;5093647;28;20071;-78
2022/06/19 10:31:04;;;;;;;11.73;7.90;;;30.20;99.90;;;;;;5087681;28;20079;-77
2022/06/19 10:33:47;;;;;;;11.40;7.50;;;30.30;99.90;;;;;;5091478;28;20054;-79
2022/06/19 10:36:30;;;;;;;13.88;8.07;;;30.40;99.90;;;;;;5093995;28;20051;-80
2022/06/19 10:39:15;;;;;;;15.18;7.88;;;30.40;99.90;;;;;;5093098;28;20040;-79
2022/06/19 10:42:00;;;;;;;12.93;8.30;;;30.40;99.90;;;;;;5092613;28;20087;-79
2022/06/19 10:45:01;;;;;;;11.88;7.50;;;30.50;99.90;;;;;;5094240;28;20115;-81
2022/06/19 10:47:55;;;;;;;13.30;8.52;;;30.50;99.90;;;;;;5096798;28;20048;-79
2022/06/19 10:50:27;;;;;;;14.68;7.85;;;30.50;99.90;;;;;;5074783;28;20549;-81
2022/06/19 10:53:32;;;;;;;13.75;8.98;;;30.60;99.90;;;;;;5096302;28;20054;-80
2022/06/19 10:56:18;;;;;;;16.23;7.95;;;30.70;99.90;;;;;;5095301;28;20048;-79
2022/06/19 10:58:45;;;;;;;12.70;7.63;;;30.70;99.90;;;;;;5091794;28;20135;-79
2022/06/19 11:04:06;;;;;;;14.68;8.20;;;30.70;99.90;;;;;;5095123;28;20077;-80
2022/06/19 11:04:12;;;;;;;13.75;8.40;;;30.70;99.90;;;;;;5095217;28;20051;-81
2022/06/19 11:06:53;;;;;;;;;;;30.70;99.90;;;;;;5094159;28;20048;-79
2022/06/19 11:09:31;;;;;;;15.48;8.27;;;30.80;99.90;;;;;;5089664;28;20362;-79
2022/06/19 11:12:20;;;;;;;17.98;8.10;;;30.90;99.90;;;;;;5089455;28;20143;-79
2022/06/19 11:14:55;;;;;;;12.48;7.82;;;31.00;99.90;;;;;;5090754;28;20054;-80
2022/06/19 11:17:35;;;;;;;15.02;7.70;;;31.00;99.90;;;;;;5087251;28;20041;-80
2022/06/19 11:20:24;;;;;;;11.63;8.25;;;30.90;99.90;;;;;;5089230;28;20079;-79
2022/06/19 11:23:06;;;;;;;11.00;7.72;;;31.00;99.90;;;;;;5088557;28;20068;-80
2022/06/19 11:25:34;;;;;;;15.32;8.13;;;31.00;99.90;;;;;;5088173;28;20445;-79
2022/06/19 11:28:07;;;;;;;16.42;8.40;;;31.00;99.90;;;;;;5092776;28;20267;-79
2022/06/19 11:30:40;;;;;;;14.23;7.72;;;31.10;99.90;;;;;;5093110;28;20072;-80
2022/06/19 11:33:16;;;;;;;16.80;8.27;;;31.10;99.90;;;;;;5089542;28;20044;-80
2022/06/19 11:35:53;;;;;;;10.55;7.30;;;31.20;99.90;;;;;;5092276;28;20264;-78
2022/06/19 11:38:32;;;;;;;15.50;8.32;;;31.20;99.90;;;;;;5092636;28;20047;-78
2022/06/19 11:40:59;;;;;;;10.97;7.77;;;31.30;99.90;;;;;;5072370;28;20063;-80
2022/06/19 11:43:32;;;;;;;11.20;7.88;;;31.30;99.90;;;;;;5092549;28;20056;-80
2022/06/19 11:46:06;;;;;;;17.30;8.45;;;31.30;99.90;;;;;;5093502;28;20048;-79
2022/06/19 11:48:33;;;;;;;13.85;7.88;;;31.40;99.90;;;;;;5086038;28;20045;-80
2022/06/19 11:51:00;;;;;;;13.27;8.00;;;31.60;99.90;;;;;;5092534;28;20075;-78
2022/06/19 11:53:39;;;;;;;16.20;8.27;;;31.70;99.90;;;;;;5089814;28;20064;-81
2022/06/19 11:56:20;;;;;;;14.60;7.68;;;31.60;99.90;;;;;;5091654;28;20052;-81
2022/06/19 11:58:55;;;;;;;12.65;7.68;;;31.70;99.90;;;;;;5088415;28;20045;-80
2022/06/19 12:01:40;;;;;;;13.98;7.68;;;31.80;99.90;;;;;;5090101;28;20045;-78
2022/06/19 12:04:33;;;;;;;12.98;7.75;;;31.80;99.90;;;;;;5090131;28;20139;-81
2022/06/19 12:07:04;;;;;;;11.75;7.63;;;31.80;99.90;;;;;;5091241;28;20059;-78
2022/06/19 12:09:42;;;;;;;12.95;7.28;;;31.80;99.90;;;;;;5090855;28;20044;-80
2022/06/19 12:12:12;;;;;;;11.20;7.30;;;31.80;99.90;;;;;;5089639;28;20045;-80
2022/06/19 12:14:50;;;;;;;13.25;7.40;;;31.80;99.90;;;;;;5093042;28;20071;-78
2022/06/19 12:17:32;;;;;;;8.90;7.25;;;31.90;99.90;;;;;;5093882;28;20044;-83
2022/06/19 12:20:05;;;;;;;14.52;7.60;;;32.00;99.90;;;;;;5090348;28;20426;-79
2022/06/19 12:22:36;;;;;;;18.20;8.50;;;32.00;99.90;;;;;;5090304;28;20045;-79
2022/06/19 12:25:35;;;;;;;13.48;7.22;;;32.00;99.90;;;;;;5088684;28;20120;-81
2022/06/19 12:28:31;;;;;;;9.80;7.30;;;32.00;99.90;;;;;;5090442;28;20430;-80
2022/06/19 12:31:14;;;;;;;13.85;7.70;;;32.10;99.90;;;;;;5091751;28;20055;-80
2022/06/19 12:33:57;;;;;;;14.18;8.05;;;32.20;99.90;;;;;;5070953;28;20056;-79
2022/06/19 12:36:29;;;;;;;9.55;7.00;;;32.20;99.90;;;;;;5092880;28;20045;-80
2022/06/19 12:38:56;;;;;;;18.73;7.55;;;32.30;99.90;;;;;;5096120;28;20071;-81
2022/06/19 12:41:46;;;;;;;14.80;7.55;;;32.30;99.90;;;;;;5092696;28;20044;-81
2022/06/19 12:44:49;;;;;;;14.02;7.18;;;32.30;99.90;;;;;;5090197;28;20521;-79
2022/06/19 12:47:33;;;;;;;11.70;7.25;;;32.40;99.90;;;;;;5093911;28;20052;-81
2022/06/19 12:50:00;;;;;;;14.25;7.22;;;32.40;99.90;;;;;;5074997;28;20045;-81
2022/06/19 12:52:41;;;;;;;12.55;7.38;;;32.40;99.90;;;;;;5095734;28;20139;-79
2022/06/19 12:55:26;;;;;;;10.80;7.57;;;32.40;99.90;;;;;;5096885;28;20068;-81
2022/06/19 12:58:11;;;;;;;12.55;7.65;;;32.50;99.90;;;;;;5095435;28;20080;-81
2022/06/19 13:01:10;;;;;;;18.73;7.65;;;32.50;99.90;;;;;;5093458;28;20136;-80
2022/06/19 13:03:37;;;;;;;13.38;7.45;;;32.50;99.90;;;;;;5095256;28;20067;-81
2022/06/19 13:06:37;;;;;;;11.80;7.55;;;32.60;99.90;;;;;;5097729;28;20052;-81
2022/06/19 13:09:18;;;;;;;14.90;7.03;;;32.60;99.90;;;;;;5096080;28;20123;-82
2022/06/19 13:12:24;;;;;;;10.90;6.95;;;32.70;99.90;;;;;;5094417;28;20529;-80
2022/06/19 13:15:17;;;;;;;18.10;7.22;;;32.70;99.90;;;;;;5097769;28;20046;-79
2022/06/19 13:17:54;;;;;;;17.63;8.38;;;32.80;99.90;;;;;;5097042;28;20083;-79